createdAt,value
2022-11-25T00:04:39.645Z,1.30
2022-11-25T00:09:41.463Z,1.30
2022-11-25T00:14:43.278Z,1.30
2022-11-25T00:19:45.105Z,1.30
2022-11-25T00:24:46.977Z,1.20
2022-11-25T00:29:48.785Z,1.20
2022-11-25T00:34:50.648Z,1.10
2022-11-25T00:39:52.443Z,1.00
2022-11-25T00:44:54.294Z,0.90
2022-11-25T00:49:57.083Z,0.90
2022-11-25T00:54:58.894Z,0.80
2022-11-25T01:00:00.847Z,1.00
2022-11-25T01:05:02.993Z,1.00
2022-11-25T01:10:05.504Z,1.10
2022-11-25T01:15:08.178Z,1.10
2022-11-25T01:20:10.565Z,1.00
2022-11-25T01:25:14.670Z,1.20
2022-11-25T01:30:16.678Z,1.20
2022-11-25T01:35:18.507Z,1.30
2022-11-25T01:40:21.357Z,1.40
2022-11-25T01:45:26.560Z,1.30
2022-11-25T01:50:33.725Z,1.50
2022-11-25T01:55:38.691Z,1.50
2022-11-25T02:00:40.762Z,1.50
2022-11-25T02:05:55.835Z,1.50
2022-11-25T02:10:58.445Z,1.50
2022-11-25T02:16:00.260Z,1.40
2022-11-25T02:21:02.122Z,1.50
2022-11-25T02:26:05.238Z,1.60
2022-11-25T02:31:08.491Z,1.50
2022-11-25T02:36:16.596Z,1.40
2022-11-25T02:41:57.396Z,1.40
2022-11-25T02:46:59.323Z,1.30
2022-11-25T02:52:01.633Z,1.10
2022-11-25T02:57:04.446Z,1.00
2022-11-25T03:02:10.249Z,1.00
2022-11-25T03:07:12.269Z,1.00
2022-11-25T03:12:20.894Z,1.00
2022-11-25T03:17:28.642Z,1.10
2022-11-25T03:22:30.567Z,1.10
2022-11-25T03:27:34.734Z,1.10
2022-11-25T03:32:37.454Z,1.40
2022-11-25T03:37:39.717Z,1.60
2022-11-25T03:42:42.948Z,1.60
2022-11-25T03:47:45.737Z,1.60
2022-11-25T03:52:47.670Z,1.70
2022-11-25T03:57:49.783Z,1.70
2022-11-25T04:02:52.659Z,1.80
2022-11-25T04:07:58.113Z,1.80
2022-11-25T04:13:00.852Z,1.70
2022-11-25T04:18:10.271Z,1.80
2022-11-25T04:23:13.430Z,1.80
2022-11-25T04:28:21.313Z,1.80
2022-11-25T04:33:23.321Z,1.70
2022-11-25T04:38:25.239Z,1.80
2022-11-25T04:43:27.287Z,1.90
2022-11-25T04:48:38.949Z,1.90
2022-11-25T04:53:41.083Z,1.80
2022-11-25T04:59:03.066Z,1.90
2022-11-25T05:04:05.507Z,1.90
2022-11-25T05:09:10.926Z,1.90
2022-11-25T05:14:14.633Z,1.90
2022-11-25T05:19:17.001Z,1.90
2022-11-25T05:24:19.085Z,1.90
2022-11-25T05:29:23.015Z,2.00
2022-11-25T05:34:25.386Z,2.00
2022-11-25T05:39:28.343Z,2.00
2022-11-25T05:44:52.362Z,2.00
2022-11-25T05:49:54.300Z,2.00
2022-11-25T05:54:57.577Z,1.90
2022-11-25T06:00:01.254Z,2.00
2022-11-25T06:05:21.110Z,2.00
2022-11-25T06:10:23.038Z,2.00
2022-11-25T06:15:26.206Z,2.10
2022-11-25T06:20:31.106Z,2.10
2022-11-25T06:25:33.682Z,2.20
2022-11-25T06:30:36.199Z,2.20
2022-11-25T06:35:47.988Z,2.30
2022-11-25T06:40:49.782Z,2.30
2022-11-25T06:45:51.701Z,2.40
2022-11-25T06:51:02.254Z,2.40
2022-11-25T06:56:22.326Z,2.40
2022-11-25T07:01:27.251Z,2.40
2022-11-25T07:06:29.667Z,2.30
2022-11-25T07:11:34.374Z,2.50
2022-11-25T07:16:38.436Z,2.50
2022-11-25T07:21:40.339Z,2.60
2022-11-25T07:26:43.592Z,2.70
2022-11-25T07:31:46.135Z,2.70
2022-11-25T07:36:49.935Z,2.70
2022-11-25T07:41:53.779Z,2.70
2022-11-25T07:46:56.605Z,2.70
2022-11-25T07:52:04.549Z,2.70
2022-11-25T07:57:07.117Z,2.80
2022-11-25T08:02:10.765Z,2.80
2022-11-25T08:07:14.715Z,2.90
2022-11-25T08:12:18.294Z,2.90
2022-11-25T08:17:21.283Z,2.90
2022-11-25T08:22:24.401Z,2.70
2022-11-25T08:27:27.401Z,2.80
2022-11-25T08:32:29.997Z,2.90
2022-11-25T08:37:33.090Z,3.10
2022-11-25T08:42:35.793Z,3.10
2022-11-25T08:47:41.566Z,3.10
2022-11-25T08:52:44.473Z,3.10
2022-11-25T08:57:47.253Z,3.20
2022-11-25T09:02:50.287Z,3.20
2022-11-25T09:07:53.146Z,3.40
2022-11-25T09:12:56.571Z,3.50
2022-11-25T09:18:03.549Z,3.70
2022-11-25T09:23:08.027Z,3.80
2022-11-25T09:28:11.216Z,3.90
2022-11-25T09:33:14.321Z,4.10
2022-11-25T09:38:17.512Z,4.20
2022-11-25T09:43:48.169Z,4.40
2022-11-25T09:49:00.227Z,4.40
2022-11-25T09:54:14.224Z,4.30
2022-11-25T09:59:22.199Z,4.60
2022-11-25T10:04:46.995Z,4.70
2022-11-25T10:09:48.841Z,4.70
2022-11-25T10:14:57.031Z,5.00
2022-11-25T10:20:07.606Z,4.90
2022-11-25T10:25:17.614Z,5.20
2022-11-25T10:30:59.156Z,5.20
2022-11-25T10:36:03.976Z,5.40
2022-11-25T10:41:06.057Z,5.20
2022-11-25T10:46:19.887Z,5.20
2022-11-25T10:51:37.064Z,5.40
2022-11-25T10:57:02.295Z,5.30
2022-11-25T11:02:16.316Z,5.40
2022-11-25T11:07:18.254Z,5.60
2022-11-25T11:12:24.194Z,5.70
2022-11-25T11:17:37.134Z,5.80
2022-11-25T11:22:48.579Z,5.90
2022-11-25T11:27:51.586Z,5.90
2022-11-25T11:33:27.078Z,6.00
2022-11-25T11:38:37.576Z,6.00
2022-11-25T11:44:00.872Z,6.10
2022-11-25T11:49:30.228Z,6.10
2022-11-25T11:54:52.532Z,6.20
2022-11-25T11:59:55.962Z,5.90
2022-11-25T12:05:30.879Z,6.10
2022-11-25T12:11:18.630Z,6.10
2022-11-25T12:16:33.615Z,6.10
2022-11-25T12:21:56.898Z,6.10
2022-11-25T12:27:09.001Z,6.00
2022-11-25T12:32:30.781Z,6.10
2022-11-25T12:37:45.074Z,6.10
2022-11-25T12:42:51.629Z,6.10
2022-11-25T12:47:55.586Z,6.30
2022-11-25T12:53:13.595Z,6.30
2022-11-25T12:58:16.836Z,6.20
2022-11-25T13:03:35.923Z,6.20
2022-11-25T13:08:42.392Z,6.30
2022-11-25T13:14:00.787Z,6.30
2022-11-25T13:19:13.198Z,6.40
2022-11-25T13:24:42.135Z,6.50
2022-11-25T13:29:45.615Z,6.50
2022-11-25T13:34:53.537Z,6.40
2022-11-25T13:40:22.923Z,6.50
2022-11-25T13:45:28.990Z,6.50
2022-11-25T13:50:55.526Z,6.40
2022-11-25T13:56:29.966Z,6.20
2022-11-25T14:01:36.797Z,6.20
2022-11-25T14:06:52.583Z,6.20
2022-11-25T14:12:07.732Z,6.10
2022-11-25T14:17:45.041Z,6.00
2022-11-25T14:23:35.402Z,5.80
2022-11-25T14:28:48.031Z,5.60
2022-11-25T14:34:23.518Z,5.60
2022-11-25T14:39:34.754Z,5.60
2022-11-25T14:45:01.571Z,5.40
2022-11-25T14:50:32.914Z,5.30
2022-11-25T14:55:30.871Z,5.20
2022-11-25T15:00:32.671Z,5.20
2022-11-25T15:05:37.085Z,5.10
2022-11-25T15:11:00.950Z,5.10
2022-11-25T15:16:14.253Z,5.10
2022-11-25T15:21:17.167Z,5.10
2022-11-25T15:26:25.462Z,5.00
2022-11-25T15:31:32.376Z,5.00
2022-11-25T15:36:34.352Z,5.10
2022-11-25T15:41:37.006Z,5.00
2022-11-25T15:46:38.814Z,4.80
2022-11-25T15:51:41.691Z,4.70
2022-11-25T15:56:56.474Z,5.00
2022-11-25T16:01:58.343Z,4.90
2022-11-25T16:07:00.326Z,5.00
2022-11-25T16:12:06.655Z,5.10
2022-11-25T16:17:11.965Z,5.10
2022-11-25T16:22:19.896Z,4.80
2022-11-25T16:27:24.809Z,4.60
2022-11-25T16:32:30.248Z,4.40
2022-11-25T16:37:32.093Z,4.50
2022-11-25T16:42:34.058Z,4.70
2022-11-25T16:47:35.923Z,4.50
2022-11-25T16:52:37.806Z,4.40
2022-11-25T16:57:42.291Z,4.40
2022-11-25T17:02:44.990Z,4.60
2022-11-25T17:07:47.686Z,4.70
2022-11-25T17:12:50.263Z,4.40
2022-11-25T17:17:52.483Z,4.40
2022-11-25T17:22:58.208Z,4.10
2022-11-25T17:28:00.279Z,3.90
2022-11-25T17:33:06.215Z,3.80
2022-11-25T17:38:20.120Z,3.80
2022-11-25T17:43:22.244Z,3.90
2022-11-25T17:48:24.545Z,4.10
2022-11-25T17:53:26.407Z,4.20
2022-11-25T17:58:28.213Z,4.40
2022-11-25T18:03:30.104Z,4.30
2022-11-25T18:08:32.231Z,4.40
2022-11-25T18:13:39.992Z,4.40
2022-11-25T18:18:41.923Z,4.20
2022-11-25T18:23:43.874Z,4.20
2022-11-25T18:28:45.857Z,4.20
2022-11-25T18:33:47.658Z,4.20
2022-11-25T18:38:50.823Z,4.30
2022-11-25T18:43:52.635Z,4.30
2022-11-25T18:48:54.661Z,4.40
2022-11-25T18:53:56.515Z,4.40
2022-11-25T18:58:59.973Z,4.40
2022-11-25T19:04:01.830Z,4.40
2022-11-25T19:09:04.035Z,4.40
2022-11-25T19:14:13.180Z,4.40
2022-11-25T19:19:16.924Z,4.20
2022-11-25T19:24:18.760Z,4.20
2022-11-25T19:29:25.540Z,4.00
2022-11-25T19:34:32.007Z,3.80
2022-11-25T19:39:35.587Z,3.70
2022-11-25T19:44:37.673Z,3.80
2022-11-25T19:49:39.718Z,4.10
2022-11-25T19:54:41.579Z,4.10
2022-11-25T19:59:44.319Z,4.20
2022-11-25T20:04:48.502Z,4.10
2022-11-25T20:09:51.651Z,3.90
2022-11-25T20:14:53.913Z,3.90
2022-11-25T20:20:02.828Z,4.00
2022-11-25T20:25:07.323Z,4.00
2022-11-25T20:30:27.223Z,3.90
2022-11-25T20:35:29.042Z,3.80
2022-11-25T20:40:43.202Z,3.70
2022-11-25T20:45:45.098Z,3.80
2022-11-25T20:50:47.229Z,3.80
2022-11-25T20:55:49.807Z,3.90
2022-11-25T21:00:57.216Z,3.90
2022-11-25T21:06:00.047Z,3.70
2022-11-25T21:11:02.258Z,3.60
2022-11-25T21:16:04.407Z,3.50
2022-11-25T21:21:14.543Z,3.50
2022-11-25T21:26:22.827Z,3.40
2022-11-25T21:31:25.993Z,3.30
2022-11-25T21:36:30.504Z,3.40
2022-11-25T21:41:32.974Z,3.30
2022-11-25T21:46:34.823Z,3.30
2022-11-25T21:51:36.688Z,3.60
2022-11-25T21:56:39.044Z,3.60
2022-11-25T22:01:40.912Z,3.60
2022-11-25T22:06:43.291Z,3.70
2022-11-25T22:11:50.375Z,3.50
2022-11-25T22:16:52.295Z,3.50
2022-11-25T22:21:54.903Z,3.70
2022-11-25T22:26:58.265Z,3.80
2022-11-25T22:32:00.576Z,3.70
2022-11-25T22:37:02.441Z,3.40
2022-11-25T22:42:07.495Z,3.50
2022-11-25T22:47:39.420Z,3.60
2022-11-25T22:52:41.259Z,3.50
2022-11-25T22:57:43.187Z,3.60
2022-11-25T23:02:46.281Z,3.60
2022-11-25T23:07:48.167Z,3.50
2022-11-25T23:12:50.021Z,3.60
2022-11-25T23:17:57.646Z,3.50
2022-11-25T23:23:11.092Z,3.50
2022-11-25T23:28:13.233Z,3.50
2022-11-25T23:33:28.834Z,3.50
2022-11-25T23:38:30.655Z,3.40
2022-11-25T23:43:32.468Z,3.30
2022-11-25T23:48:35.124Z,3.30
2022-11-25T23:53:39.858Z,3.20
2022-11-25T23:58:41.703Z,3.20
